Pagrindinis puslapis
METAR-TAF:

METAR-TAF

Oro uostai :

Draugen, Norvegija

platuma: 64-21-20N, ilguma: 007-47-30E, Aukštis: 0 m

Dabartinis oras

Ataskaita buvo paskelbta 39 minutes, ne 12:50 UTC
Vėjas 26 kt iš Šiaurės
Temperatūra 5°C
Drėgmė 75%
Slėgis 1023 hPa
Matomumas 10 km arba daugiau
lietus,

METAR: ENDR 201250Z AUTO 01026KT 9999NDV -SHRA OVC015/// 05/01 Q1023 W///S5

Laikas: 15:29 (13:29 UTC)


TAF: trūkstamas

Orai ataskaitas ir orų prognozės (METAR, TAF).

turimą stotys yra geltonos ir raudonos taškus žemėlapyje.

Perkelti pele per norėdami pamatyti stoties vardą.

Tada spustelėkite, norėdami matyti oro stebėjimo ir prognozės.

Norėdami pakeisti žemėlapį: spustelėkite ant žalios mygtukų su juodo kryžiaus žemyn,; žalią mygtuką su brūkšneliu, jei norite nutolinti; arba žalių rodyklių gretimoms žemėlapius.


METAR-TAF: